sensor_id;sensor_type;location;lat;lon;timestamp;P1;durP1;ratioP1;P2;durP2;ratioP2
34964;SDS011;66502;53.448;5.798;2022-12-31T00:01:46;7.45;;;1.33;;
34964;SDS011;66502;53.448;5.798;2022-12-31T00:04:13;20.23;;;2.92;;
34964;SDS011;66502;53.448;5.798;2022-12-31T00:06:40;15.88;;;2.80;;
34964;SDS011;66502;53.448;5.798;2022-12-31T00:09:07;17.20;;;3.25;;
34964;SDS011;66502;53.448;5.798;2022-12-31T00:11:35;16.70;;;2.58;;
34964;SDS011;66502;53.448;5.798;2022-12-31T00:14:02;17.35;;;2.47;;
34964;SDS011;66502;53.448;5.798;2022-12-31T00:16:31;19.52;;;2.45;;
34964;SDS011;66502;53.448;5.798;2022-12-31T00:19:01;11.75;;;3.17;;
34964;SDS011;66502;53.448;5.798;2022-12-31T00:21:30;8.70;;;2.03;;
34964;SDS011;66502;53.448;5.798;2022-12-31T00:23:58;12.15;;;2.60;;
34964;SDS011;66502;53.448;5.798;2022-12-31T00:26:26;6.10;;;1.58;;
34964;SDS011;66502;53.448;5.798;2022-12-31T00:28:55;12.80;;;2.10;;
34964;SDS011;66502;53.448;5.798;2022-12-31T00:31:23;6.85;;;2.33;;
34964;SDS011;66502;53.448;5.798;2022-12-31T00:33:55;11.73;;;2.22;;
34964;SDS011;66502;53.448;5.798;2022-12-31T00:36:23;19.60;;;3.50;;
34964;SDS011;66502;53.448;5.798;2022-12-31T00:38:56;13.65;;;2.92;;
34964;SDS011;66502;53.448;5.798;2022-12-31T00:41:24;2.67;;;1.33;;
34964;SDS011;66502;53.448;5.798;2022-12-31T00:43:51;8.75;;;2.50;;
34964;SDS011;66502;53.448;5.798;2022-12-31T00:46:18;11.07;;;3.08;;
34964;SDS011;66502;53.448;5.798;2022-12-31T00:48:46;13.45;;;1.95;;
34964;SDS011;66502;53.448;5.798;2022-12-31T00:51:14;10.07;;;1.85;;
34964;SDS011;66502;53.448;5.798;2022-12-31T00:53:42;9.75;;;2.28;;
34964;SDS011;66502;53.448;5.798;2022-12-31T00:56:10;25.10;;;3.65;;
34964;SDS011;66502;53.448;5.798;2022-12-31T00:58:39;14.43;;;2.83;;
34964;SDS011;66502;53.448;5.798;2022-12-31T01:01:07;6.00;;;1.73;;
34964;SDS011;66502;53.448;5.798;2022-12-31T01:03:54;8.65;;;2.13;;
34964;SDS011;66502;53.448;5.798;2022-12-31T01:06:24;9.43;;;2.85;;
34964;SDS011;66502;53.448;5.798;2022-12-31T01:08:51;11.32;;;2.45;;
34964;SDS011;66502;53.448;5.798;2022-12-31T01:11:20;21.33;;;2.92;;
34964;SDS011;66502;53.448;5.798;2022-12-31T01:13:49;16.45;;;3.15;;
34964;SDS011;66502;53.448;5.798;2022-12-31T01:16:19;23.05;;;3.47;;
34964;SDS011;66502;53.448;5.798;2022-12-31T01:18:49;24.80;;;3.63;;
34964;SDS011;66502;53.448;5.798;2022-12-31T01:21:16;14.98;;;3.38;;
34964;SDS011;66502;53.448;5.798;2022-12-31T01:23:44;16.05;;;3.00;;
34964;SDS011;66502;53.448;5.798;2022-12-31T01:26:12;22.17;;;3.55;;
34964;SDS011;66502;53.448;5.798;2022-12-31T01:28:39;18.40;;;2.35;;
34964;SDS011;66502;53.448;5.798;2022-12-31T01:31:08;14.13;;;3.08;;
34964;SDS011;66502;53.448;5.798;2022-12-31T01:33:36;29.98;;;3.40;;
34964;SDS011;66502;53.448;5.798;2022-12-31T01:36:05;12.63;;;3.10;;
34964;SDS011;66502;53.448;5.798;2022-12-31T01:38:33;7.60;;;2.42;;
34964;SDS011;66502;53.448;5.798;2022-12-31T01:41:00;22.98;;;2.75;;
34964;SDS011;66502;53.448;5.798;2022-12-31T01:46:17;11.38;;;2.83;;
34964;SDS011;66502;53.448;5.798;2022-12-31T01:48:55;11.82;;;2.80;;
34964;SDS011;66502;53.448;5.798;2022-12-31T01:51:25;8.55;;;2.28;;
34964;SDS011;66502;53.448;5.798;2022-12-31T01:53:54;6.47;;;2.40;;
34964;SDS011;66502;53.448;5.798;2022-12-31T01:56:22;10.27;;;2.05;;
34964;SDS011;66502;53.448;5.798;2022-12-31T01:58:50;12.82;;;2.35;;
34964;SDS011;66502;53.448;5.798;2022-12-31T02:01:20;11.73;;;2.00;;
34964;SDS011;66502;53.448;5.798;2022-12-31T02:03:55;7.57;;;1.80;;
34964;SDS011;66502;53.448;5.798;2022-12-31T02:06:24;12.82;;;2.55;;
34964;SDS011;66502;53.448;5.798;2022-12-31T02:08:56;6.10;;;2.22;;
34964;SDS011;66502;53.448;5.798;2022-12-31T02:11:27;8.95;;;2.13;;
34964;SDS011;66502;53.448;5.798;2022-12-31T02:13:56;12.25;;;1.90;;
34964;SDS011;66502;53.448;5.798;2022-12-31T02:22:23;18.15;;;2.45;;
34964;SDS011;66502;53.448;5.798;2022-12-31T02:30:44;13.30;;;3.10;;
34964;SDS011;66502;53.448;5.798;2022-12-31T02:33:24;14.15;;;1.92;;
34964;SDS011;66502;53.448;5.798;2022-12-31T02:36:05;12.20;;;2.00;;
34964;SDS011;66502;53.448;5.798;2022-12-31T02:38:41;11.10;;;2.10;;
34964;SDS011;66502;53.448;5.798;2022-12-31T02:41:14;8.50;;;1.70;;
34964;SDS011;66502;53.448;5.798;2022-12-31T02:44:18;9.95;;;1.85;;
34964;SDS011;66502;53.448;5.798;2022-12-31T02:49:30;7.70;;;2.15;;
34964;SDS011;66502;53.448;5.798;2022-12-31T02:52:19;10.75;;;1.60;;
34964;SDS011;66502;53.448;5.798;2022-12-31T02:54:57;10.45;;;1.63;;
34964;SDS011;66502;53.448;5.798;2022-12-31T02:57:36;10.43;;;2.03;;
34964;SDS011;66502;53.448;5.798;2022-12-31T03:00:07;9.13;;;1.15;;
34964;SDS011;66502;53.448;5.798;2022-12-31T03:02:56;6.90;;;1.38;;
34964;SDS011;66502;53.448;5.798;2022-12-31T03:05:24;4.75;;;1.48;;
34964;SDS011;66502;53.448;5.798;2022-12-31T03:07:54;20.13;;;2.90;;
34964;SDS011;66502;53.448;5.798;2022-12-31T03:10:21;7.47;;;0.82;;
34964;SDS011;66502;53.448;5.798;2022-12-31T03:12:48;4.30;;;1.48;;
34964;SDS011;66502;53.448;5.798;2022-12-31T03:15:29;11.63;;;2.00;;
34964;SDS011;66502;53.448;5.798;2022-12-31T03:20:38;10.93;;;1.52;;
34964;SDS011;66502;53.448;5.798;2022-12-31T03:23:26;16.73;;;1.77;;
34964;SDS011;66502;53.448;5.798;2022-12-31T03:25:55;2.45;;;1.05;;
34964;SDS011;66502;53.448;5.798;2022-12-31T03:28:25;13.98;;;1.73;;
34964;SDS011;66502;53.448;5.798;2022-12-31T03:30:58;5.80;;;1.45;;
34964;SDS011;66502;53.448;5.798;2022-12-31T03:33:30;6.35;;;2.25;;
34964;SDS011;66502;53.448;5.798;2022-12-31T03:35:58;12.25;;;2.33;;
34964;SDS011;66502;53.448;5.798;2022-12-31T03:38:39;5.38;;;2.05;;
34964;SDS011;66502;53.448;5.798;2022-12-31T03:41:08;4.60;;;1.33;;
34964;SDS011;66502;53.448;5.798;2022-12-31T03:43:36;4.78;;;1.05;;
34964;SDS011;66502;53.448;5.798;2022-12-31T03:46:02;5.57;;;1.30;;
34964;SDS011;66502;53.448;5.798;2022-12-31T03:48:29;9.10;;;2.35;;
34964;SDS011;66502;53.448;5.798;2022-12-31T03:50:56;4.55;;;0.90;;
34964;SDS011;66502;53.448;5.798;2022-12-31T03:53:22;4.65;;;1.02;;
34964;SDS011;66502;53.448;5.798;2022-12-31T03:55:52;12.90;;;1.90;;
34964;SDS011;66502;53.448;5.798;2022-12-31T04:00:46;6.95;;;1.23;;
34964;SDS011;66502;53.448;5.798;2022-12-31T04:03:13;9.00;;;1.88;;
34964;SDS011;66502;53.448;5.798;2022-12-31T04:05:40;8.80;;;0.93;;
34964;SDS011;66502;53.448;5.798;2022-12-31T04:08:07;10.23;;;1.98;;
34964;SDS011;66502;53.448;5.798;2022-12-31T04:10:33;8.05;;;1.67;;
34964;SDS011;66502;53.448;5.798;2022-12-31T04:13:00;5.72;;;1.58;;
34964;SDS011;66502;53.448;5.798;2022-12-31T04:15:29;12.63;;;2.20;;
34964;SDS011;66502;53.448;5.798;2022-12-31T04:17:56;7.80;;;1.80;;
34964;SDS011;66502;53.448;5.798;2022-12-31T04:20:23;3.83;;;1.38;;
34964;SDS011;66502;53.448;5.798;2022-12-31T04:22:50;9.68;;;1.73;;
34964;SDS011;66502;53.448;5.798;2022-12-31T04:25:16;3.70;;;1.08;;
34964;SDS011;66502;53.448;5.798;2022-12-31T04:27:43;5.38;;;1.35;;
34964;SDS011;66502;53.448;5.798;2022-12-31T04:30:10;6.22;;;1.40;;
34964;SDS011;66502;53.448;5.798;2022-12-31T04:32:38;5.80;;;1.63;;
34964;SDS011;66502;53.448;5.798;2022-12-31T04:35:05;8.07;;;0.80;;
34964;SDS011;66502;53.448;5.798;2022-12-31T04:37:32;10.57;;;2.13;;
34964;SDS011;66502;53.448;5.798;2022-12-31T04:39:59;8.25;;;1.10;;
34964;SDS011;66502;53.448;5.798;2022-12-31T04:42:31;8.68;;;1.80;;
34964;SDS011;66502;53.448;5.798;2022-12-31T04:44:57;6.53;;;1.73;;
34964;SDS011;66502;53.448;5.798;2022-12-31T04:47:24;9.43;;;1.75;;
34964;SDS011;66502;53.448;5.798;2022-12-31T04:49:51;8.40;;;1.90;;
34964;SDS011;66502;53.448;5.798;2022-12-31T04:52:17;7.68;;;1.58;;
34964;SDS011;66502;53.448;5.798;2022-12-31T04:54:44;4.32;;;1.58;;
34964;SDS011;66502;53.448;5.798;2022-12-31T04:57:11;9.48;;;1.48;;
34964;SDS011;66502;53.448;5.798;2022-12-31T04:59:37;5.72;;;1.30;;
34964;SDS011;66502;53.448;5.798;2022-12-31T05:02:04;8.02;;;2.05;;
34964;SDS011;66502;53.448;5.798;2022-12-31T05:04:31;6.35;;;2.08;;
34964;SDS011;66502;53.448;5.798;2022-12-31T05:06:58;15.57;;;1.13;;
34964;SDS011;66502;53.448;5.798;2022-12-31T05:09:24;8.30;;;0.93;;
34964;SDS011;66502;53.448;5.798;2022-12-31T05:11:53;3.00;;;1.10;;
34964;SDS011;66502;53.448;5.798;2022-12-31T05:14:19;5.45;;;1.85;;
34964;SDS011;66502;53.448;5.798;2022-12-31T05:16:46;8.15;;;1.63;;
34964;SDS011;66502;53.448;5.798;2022-12-31T05:19:13;8.25;;;1.42;;
34964;SDS011;66502;53.448;5.798;2022-12-31T05:21:40;6.10;;;1.05;;
34964;SDS011;66502;53.448;5.798;2022-12-31T05:24:07;3.85;;;0.98;;
34964;SDS011;66502;53.448;5.798;2022-12-31T05:26:33;7.43;;;1.25;;
34964;SDS011;66502;53.448;5.798;2022-12-31T05:29:00;4.65;;;0.90;;
34964;SDS011;66502;53.448;5.798;2022-12-31T05:31:27;5.20;;;1.00;;
34964;SDS011;66502;53.448;5.798;2022-12-31T05:33:53;1.05;;;0.60;;
34964;SDS011;66502;53.448;5.798;2022-12-31T05:36:20;4.60;;;0.90;;
34964;SDS011;66502;53.448;5.798;2022-12-31T05:38:47;4.32;;;1.15;;
34964;SDS011;66502;53.448;5.798;2022-12-31T05:41:13;9.63;;;1.30;;
34964;SDS011;66502;53.448;5.798;2022-12-31T05:43:40;4.63;;;1.00;;
34964;SDS011;66502;53.448;5.798;2022-12-31T05:46:07;10.55;;;1.38;;
34964;SDS011;66502;53.448;5.798;2022-12-31T05:48:34;4.45;;;1.05;;
34964;SDS011;66502;53.448;5.798;2022-12-31T05:51:00;1.80;;;1.00;;
34964;SDS011;66502;53.448;5.798;2022-12-31T05:53:27;1.17;;;0.47;;
34964;SDS011;66502;53.448;5.798;2022-12-31T05:55:54;10.20;;;1.85;;
34964;SDS011;66502;53.448;5.798;2022-12-31T05:58:20;2.40;;;0.55;;
34964;SDS011;66502;53.448;5.798;2022-12-31T06:00:47;1.40;;;0.73;;
34964;SDS011;66502;53.448;5.798;2022-12-31T06:03:14;2.85;;;1.25;;
34964;SDS011;66502;53.448;5.798;2022-12-31T06:05:41;4.70;;;0.90;;
34964;SDS011;66502;53.448;5.798;2022-12-31T06:08:09;4.95;;;0.85;;
34964;SDS011;66502;53.448;5.798;2022-12-31T06:10:36;7.13;;;0.85;;
34964;SDS011;66502;53.448;5.798;2022-12-31T06:13:04;3.53;;;0.63;;
34964;SDS011;66502;53.448;5.798;2022-12-31T06:15:31;10.07;;;1.48;;
34964;SDS011;66502;53.448;5.798;2022-12-31T06:17:57;8.65;;;1.02;;
34964;SDS011;66502;53.448;5.798;2022-12-31T06:20:24;2.90;;;0.98;;
34964;SDS011;66502;53.448;5.798;2022-12-31T06:22:51;9.52;;;1.17;;
34964;SDS011;66502;53.448;5.798;2022-12-31T06:25:18;2.75;;;0.93;;
34964;SDS011;66502;53.448;5.798;2022-12-31T06:27:44;3.50;;;0.80;;
34964;SDS011;66502;53.448;5.798;2022-12-31T06:30:11;11.25;;;1.70;;
34964;SDS011;66502;53.448;5.798;2022-12-31T06:32:38;3.67;;;0.80;;
34964;SDS011;66502;53.448;5.798;2022-12-31T06:35:05;6.13;;;1.25;;
34964;SDS011;66502;53.448;5.798;2022-12-31T06:37:33;6.85;;;1.10;;
34964;SDS011;66502;53.448;5.798;2022-12-31T06:39:59;7.43;;;1.33;;
34964;SDS011;66502;53.448;5.798;2022-12-31T06:42:29;2.78;;;1.20;;
34964;SDS011;66502;53.448;5.798;2022-12-31T06:44:57;3.80;;;0.63;;
34964;SDS011;66502;53.448;5.798;2022-12-31T06:47:24;6.53;;;1.30;;
34964;SDS011;66502;53.448;5.798;2022-12-31T06:49:51;7.93;;;1.75;;
34964;SDS011;66502;53.448;5.798;2022-12-31T06:52:18;6.88;;;1.23;;
34964;SDS011;66502;53.448;5.798;2022-12-31T06:54:45;2.35;;;1.05;;
34964;SDS011;66502;53.448;5.798;2022-12-31T06:57:12;3.35;;;0.82;;
34964;SDS011;66502;53.448;5.798;2022-12-31T06:59:39;7.72;;;1.30;;
34964;SDS011;66502;53.448;5.798;2022-12-31T07:04:55;6.55;;;1.25;;
34964;SDS011;66502;53.448;5.798;2022-12-31T07:07:30;1.67;;;0.82;;
34964;SDS011;66502;53.448;5.798;2022-12-31T07:10:21;2.63;;;0.73;;
34964;SDS011;66502;53.448;5.798;2022-12-31T07:13:05;8.18;;;1.48;;
34964;SDS011;66502;53.448;5.798;2022-12-31T07:16:11;8.85;;;1.55;;
34964;SDS011;66502;53.448;5.798;2022-12-31T07:19:09;1.73;;;0.68;;
34964;SDS011;66502;53.448;5.798;2022-12-31T07:21:50;5.43;;;1.02;;
34964;SDS011;66502;53.448;5.798;2022-12-31T07:24:19;3.85;;;1.15;;
34964;SDS011;66502;53.448;5.798;2022-12-31T07:26:49;2.55;;;0.85;;
34964;SDS011;66502;53.448;5.798;2022-12-31T07:38:03;6.05;;;0.85;;
34964;SDS011;66502;53.448;5.798;2022-12-31T07:40:37;3.75;;;1.23;;
34964;SDS011;66502;53.448;5.798;2022-12-31T07:43:28;2.50;;;1.05;;
34964;SDS011;66502;53.448;5.798;2022-12-31T07:49:01;1.10;;;0.80;;
34964;SDS011;66502;53.448;5.798;2022-12-31T07:51:29;4.35;;;0.82;;
34964;SDS011;66502;53.448;5.798;2022-12-31T07:53:56;2.70;;;1.35;;
34964;SDS011;66502;53.448;5.798;2022-12-31T07:56:23;0.70;;;0.70;;
34964;SDS011;66502;53.448;5.798;2022-12-31T07:58:54;3.58;;;1.35;;
34964;SDS011;66502;53.448;5.798;2022-12-31T08:01:50;3.90;;;1.30;;
34964;SDS011;66502;53.448;5.798;2022-12-31T08:07:42;9.05;;;1.00;;
34964;SDS011;66502;53.448;5.798;2022-12-31T08:10:19;2.55;;;1.00;;
34964;SDS011;66502;53.448;5.798;2022-12-31T08:12:59;4.30;;;0.98;;
34964;SDS011;66502;53.448;5.798;2022-12-31T08:15:27;3.20;;;1.40;;
34964;SDS011;66502;53.448;5.798;2022-12-31T08:17:56;4.55;;;1.27;;
34964;SDS011;66502;53.448;5.798;2022-12-31T08:20:23;2.00;;;1.05;;
34964;SDS011;66502;53.448;5.798;2022-12-31T08:31:09;4.53;;;1.13;;
34964;SDS011;66502;53.448;5.798;2022-12-31T08:42:26;2.65;;;1.45;;
34964;SDS011;66502;53.448;5.798;2022-12-31T08:50:25;1.58;;;1.20;;
34964;SDS011;66502;53.448;5.798;2022-12-31T08:52:52;1.02;;;0.98;;
34964;SDS011;66502;53.448;5.798;2022-12-31T08:55:19;1.27;;;1.17;;
34964;SDS011;66502;53.448;5.798;2022-12-31T09:00:47;1.88;;;1.40;;
34964;SDS011;66502;53.448;5.798;2022-12-31T09:08:34;2.10;;;1.40;;
34964;SDS011;66502;53.448;5.798;2022-12-31T09:11:17;2.45;;;1.23;;
34964;SDS011;66502;53.448;5.798;2022-12-31T09:16:25;3.58;;;1.77;;
34964;SDS011;66502;53.448;5.798;2022-12-31T09:19:07;3.78;;;1.45;;
34964;SDS011;66502;53.448;5.798;2022-12-31T09:21:35;2.38;;;1.55;;
34964;SDS011;66502;53.448;5.798;2022-12-31T09:24:03;1.20;;;1.10;;
34964;SDS011;66502;53.448;5.798;2022-12-31T09:26:49;1.95;;;1.08;;
34964;SDS011;66502;53.448;5.798;2022-12-31T09:29:22;4.68;;;0.95;;
34964;SDS011;66502;53.448;5.798;2022-12-31T09:35:14;2.90;;;0.77;;
34964;SDS011;66502;53.448;5.798;2022-12-31T09:37:48;4.38;;;1.08;;
34964;SDS011;66502;53.448;5.798;2022-12-31T09:40:43;2.45;;;0.93;;
34964;SDS011;66502;53.448;5.798;2022-12-31T09:46:02;3.00;;;0.82;;
34964;SDS011;66502;53.448;5.798;2022-12-31T09:48:54;1.70;;;0.88;;
34964;SDS011;66502;53.448;5.798;2022-12-31T09:51:29;4.90;;;1.60;;
34964;SDS011;66502;53.448;5.798;2022-12-31T09:54:28;6.93;;;2.00;;
34964;SDS011;66502;53.448;5.798;2022-12-31T10:00:03;7.53;;;1.02;;
34964;SDS011;66502;53.448;5.798;2022-12-31T10:05:26;1.45;;;0.73;;
34964;SDS011;66502;53.448;5.798;2022-12-31T10:11:04;10.52;;;1.83;;
34964;SDS011;66502;53.448;5.798;2022-12-31T10:19:24;7.20;;;1.67;;
34964;SDS011;66502;53.448;5.798;2022-12-31T10:22:32;10.45;;;2.13;;
34964;SDS011;66502;53.448;5.798;2022-12-31T10:28:08;4.90;;;1.45;;
34964;SDS011;66502;53.448;5.798;2022-12-31T10:31:02;15.75;;;2.50;;
34964;SDS011;66502;53.448;5.798;2022-12-31T10:36:19;6.80;;;1.52;;
34964;SDS011;66502;53.448;5.798;2022-12-31T10:39:07;8.65;;;1.88;;
34964;SDS011;66502;53.448;5.798;2022-12-31T10:41:53;10.43;;;2.05;;
34964;SDS011;66502;53.448;5.798;2022-12-31T10:52:55;11.57;;;2.30;;
34964;SDS011;66502;53.448;5.798;2022-12-31T11:07:46;6.00;;;1.70;;
34964;SDS011;66502;53.448;5.798;2022-12-31T11:23:34;18.63;;;2.85;;
34964;SDS011;66502;53.448;5.798;2022-12-31T11:31:56;13.90;;;2.33;;
34964;SDS011;66502;53.448;5.798;2022-12-31T11:51:51;12.27;;;1.80;;
34964;SDS011;66502;53.448;5.798;2022-12-31T11:54:57;8.88;;;2.30;;
34964;SDS011;66502;53.448;5.798;2022-12-31T11:57:50;11.43;;;2.13;;
34964;SDS011;66502;53.448;5.798;2022-12-31T12:00:19;21.30;;;2.40;;
34964;SDS011;66502;53.448;5.798;2022-12-31T12:02:58;14.85;;;2.10;;
34964;SDS011;66502;53.448;5.798;2022-12-31T12:05:30;13.07;;;2.03;;
34964;SDS011;66502;53.448;5.798;2022-12-31T12:07:58;18.88;;;3.35;;
34964;SDS011;66502;53.448;5.798;2022-12-31T12:10:26;14.95;;;2.28;;
34964;SDS011;66502;53.448;5.798;2022-12-31T12:15:38;14.57;;;2.45;;
34964;SDS011;66502;53.448;5.798;2022-12-31T12:18:13;12.35;;;3.92;;
34964;SDS011;66502;53.448;5.798;2022-12-31T12:23:35;8.00;;;1.33;;
34964;SDS011;66502;53.448;5.798;2022-12-31T12:26:03;19.85;;;3.25;;
34964;SDS011;66502;53.448;5.798;2022-12-31T12:28:40;11.27;;;2.08;;
34964;SDS011;66502;53.448;5.798;2022-12-31T12:31:16;4.50;;;1.83;;
34964;SDS011;66502;53.448;5.798;2022-12-31T12:33:46;16.02;;;2.78;;
34964;SDS011;66502;53.448;5.798;2022-12-31T12:36:15;22.77;;;3.40;;
34964;SDS011;66502;53.448;5.798;2022-12-31T12:38:43;12.43;;;2.30;;
34964;SDS011;66502;53.448;5.798;2022-12-31T12:41:20;11.05;;;2.42;;
34964;SDS011;66502;53.448;5.798;2022-12-31T12:44:07;13.90;;;2.40;;
34964;SDS011;66502;53.448;5.798;2022-12-31T12:46:43;9.32;;;2.53;;
34964;SDS011;66502;53.448;5.798;2022-12-31T12:51:59;24.70;;;2.67;;
34964;SDS011;66502;53.448;5.798;2022-12-31T13:03:20;6.05;;;1.85;;
34964;SDS011;66502;53.448;5.798;2022-12-31T13:09:41;10.32;;;2.55;;
34964;SDS011;66502;53.448;5.798;2022-12-31T13:12:15;22.40;;;3.28;;
34964;SDS011;66502;53.448;5.798;2022-12-31T13:17:56;14.48;;;2.83;;
34964;SDS011;66502;53.448;5.798;2022-12-31T13:20:43;13.13;;;4.00;;
34964;SDS011;66502;53.448;5.798;2022-12-31T13:23:25;21.23;;;4.18;;
34964;SDS011;66502;53.448;5.798;2022-12-31T13:28:44;14.00;;;3.05;;
34964;SDS011;66502;53.448;5.798;2022-12-31T13:31:14;15.00;;;3.27;;
34964;SDS011;66502;53.448;5.798;2022-12-31T13:33:49;14.02;;;3.58;;
34964;SDS011;66502;53.448;5.798;2022-12-31T13:36:22;19.67;;;2.63;;
34964;SDS011;66502;53.448;5.798;2022-12-31T13:38:52;13.45;;;3.58;;
34964;SDS011;66502;53.448;5.798;2022-12-31T13:44:02;13.48;;;2.75;;
34964;SDS011;66502;53.448;5.798;2022-12-31T13:49:14;18.17;;;3.47;;
34964;SDS011;66502;53.448;5.798;2022-12-31T13:52:23;13.20;;;3.08;;
34964;SDS011;66502;53.448;5.798;2022-12-31T13:55:12;23.58;;;3.78;;
34964;SDS011;66502;53.448;5.798;2022-12-31T13:57:48;8.10;;;2.25;;
34964;SDS011;66502;53.448;5.798;2022-12-31T14:00:24;6.95;;;2.88;;
34964;SDS011;66502;53.448;5.798;2022-12-31T14:02:55;17.05;;;3.53;;
34964;SDS011;66502;53.448;5.798;2022-12-31T14:08:12;11.77;;;3.10;;
34964;SDS011;66502;53.448;5.798;2022-12-31T14:16:19;15.55;;;2.60;;
34964;SDS011;66502;53.448;5.798;2022-12-31T14:21:43;13.73;;;2.72;;
34964;SDS011;66502;53.448;5.798;2022-12-31T14:29:53;15.80;;;1.80;;
34964;SDS011;66502;53.448;5.798;2022-12-31T14:49:35;6.80;;;2.10;;
34964;SDS011;66502;53.448;5.798;2022-12-31T14:52:29;10.38;;;1.83;;
34964;SDS011;66502;53.448;5.798;2022-12-31T14:54:58;10.13;;;1.65;;
34964;SDS011;66502;53.448;5.798;2022-12-31T14:57:33;10.30;;;1.90;;
34964;SDS011;66502;53.448;5.798;2022-12-31T15:03:21;5.75;;;1.48;;
34964;SDS011;66502;53.448;5.798;2022-12-31T15:06:09;3.30;;;1.20;;
34964;SDS011;66502;53.448;5.798;2022-12-31T15:14:50;3.63;;;1.10;;
34964;SDS011;66502;53.448;5.798;2022-12-31T15:20:13;8.45;;;1.20;;
34964;SDS011;66502;53.448;5.798;2022-12-31T15:22:51;5.85;;;1.42;;
34964;SDS011;66502;53.448;5.798;2022-12-31T15:27:54;7.07;;;1.60;;
34964;SDS011;66502;53.448;5.798;2022-12-31T15:30:36;6.63;;;1.50;;
34964;SDS011;66502;53.448;5.798;2022-12-31T15:33:18;3.92;;;1.15;;
34964;SDS011;66502;53.448;5.798;2022-12-31T15:35:56;12.93;;;1.55;;
34964;SDS011;66502;53.448;5.798;2022-12-31T15:38:37;10.52;;;1.17;;
34964;SDS011;66502;53.448;5.798;2022-12-31T15:43:46;9.68;;;1.00;;
34964;SDS011;66502;53.448;5.798;2022-12-31T15:46:24;6.65;;;1.75;;
34964;SDS011;66502;53.448;5.798;2022-12-31T15:48:59;3.63;;;1.80;;
34964;SDS011;66502;53.448;5.798;2022-12-31T15:51:42;9.60;;;5.55;;
34964;SDS011;66502;53.448;5.798;2022-12-31T15:54:23;3.55;;;0.88;;
34964;SDS011;66502;53.448;5.798;2022-12-31T15:56:56;16.13;;;1.40;;
34964;SDS011;66502;53.448;5.798;2022-12-31T15:59:23;4.10;;;1.05;;
34964;SDS011;66502;53.448;5.798;2022-12-31T16:01:53;5.00;;;1.10;;
34964;SDS011;66502;53.448;5.798;2022-12-31T16:04:22;12.53;;;1.50;;
34964;SDS011;66502;53.448;5.798;2022-12-31T16:06:51;1.87;;;0.63;;
34964;SDS011;66502;53.448;5.798;2022-12-31T16:09:19;9.82;;;1.83;;
34964;SDS011;66502;53.448;5.798;2022-12-31T16:11:52;11.73;;;2.10;;
34964;SDS011;66502;53.448;5.798;2022-12-31T16:16:53;5.90;;;1.33;;
34964;SDS011;66502;53.448;5.798;2022-12-31T16:19:29;6.50;;;1.73;;
34964;SDS011;66502;53.448;5.798;2022-12-31T16:22:05;7.07;;;1.58;;
34964;SDS011;66502;53.448;5.798;2022-12-31T16:24:39;8.10;;;2.60;;
34964;SDS011;66502;53.448;5.798;2022-12-31T16:27:27;7.47;;;2.28;;
34964;SDS011;66502;53.448;5.798;2022-12-31T16:29:58;11.05;;;3.05;;
34964;SDS011;66502;53.448;5.798;2022-12-31T16:32:32;8.63;;;2.25;;
34964;SDS011;66502;53.448;5.798;2022-12-31T16:35:01;18.52;;;2.28;;
34964;SDS011;66502;53.448;5.798;2022-12-31T16:37:35;9.52;;;1.98;;
34964;SDS011;66502;53.448;5.798;2022-12-31T16:42:58;16.92;;;2.70;;
34964;SDS011;66502;53.448;5.798;2022-12-31T16:45:30;24.35;;;3.13;;
34964;SDS011;66502;53.448;5.798;2022-12-31T16:48:05;10.98;;;2.45;;
34964;SDS011;66502;53.448;5.798;2022-12-31T16:50:48;17.13;;;2.80;;
34964;SDS011;66502;53.448;5.798;2022-12-31T16:53:18;20.48;;;3.10;;
34964;SDS011;66502;53.448;5.798;2022-12-31T16:55:54;20.58;;;4.20;;
34964;SDS011;66502;53.448;5.798;2022-12-31T16:58:27;13.30;;;2.83;;
34964;SDS011;66502;53.448;5.798;2022-12-31T17:01:07;17.25;;;3.33;;
34964;SDS011;66502;53.448;5.798;2022-12-31T17:03:40;10.55;;;3.25;;
34964;SDS011;66502;53.448;5.798;2022-12-31T17:06:15;25.27;;;2.83;;
34964;SDS011;66502;53.448;5.798;2022-12-31T17:09:02;7.97;;;2.58;;
34964;SDS011;66502;53.448;5.798;2022-12-31T17:11:56;20.73;;;3.83;;
34964;SDS011;66502;53.448;5.798;2022-12-31T17:14:49;17.85;;;4.50;;
34964;SDS011;66502;53.448;5.798;2022-12-31T17:17:20;20.45;;;3.33;;
34964;SDS011;66502;53.448;5.798;2022-12-31T17:19:54;29.02;;;5.05;;
34964;SDS011;66502;53.448;5.798;2022-12-31T17:22:26;11.27;;;3.42;;
34964;SDS011;66502;53.448;5.798;2022-12-31T17:25:18;20.67;;;3.30;;
34964;SDS011;66502;53.448;5.798;2022-12-31T17:32:48;26.20;;;3.45;;
34964;SDS011;66502;53.448;5.798;2022-12-31T17:35:38;23.95;;;3.70;;
34964;SDS011;66502;53.448;5.798;2022-12-31T17:40:44;16.65;;;3.45;;
34964;SDS011;66502;53.448;5.798;2022-12-31T17:43:21;9.13;;;2.50;;
34964;SDS011;66502;53.448;5.798;2022-12-31T17:45:51;16.02;;;4.00;;
34964;SDS011;66502;53.448;5.798;2022-12-31T17:48:21;20.52;;;4.18;;
34964;SDS011;66502;53.448;5.798;2022-12-31T17:50:53;17.90;;;3.33;;
34964;SDS011;66502;53.448;5.798;2022-12-31T17:53:24;16.08;;;2.53;;
34964;SDS011;66502;53.448;5.798;2022-12-31T17:55:51;12.55;;;2.20;;
34964;SDS011;66502;53.448;5.798;2022-12-31T17:58:27;15.52;;;2.50;;
34964;SDS011;66502;53.448;5.798;2022-12-31T18:00:57;10.90;;;2.47;;
34964;SDS011;66502;53.448;5.798;2022-12-31T18:03:25;12.23;;;3.20;;
34964;SDS011;66502;53.448;5.798;2022-12-31T18:05:51;12.05;;;2.55;;
34964;SDS011;66502;53.448;5.798;2022-12-31T18:08:18;12.40;;;2.75;;
34964;SDS011;66502;53.448;5.798;2022-12-31T18:10:45;10.85;;;2.83;;
34964;SDS011;66502;53.448;5.798;2022-12-31T18:13:13;12.93;;;5.43;;
34964;SDS011;66502;53.448;5.798;2022-12-31T18:15:43;8.38;;;2.45;;
34964;SDS011;66502;53.448;5.798;2022-12-31T18:20:51;14.88;;;2.83;;
34964;SDS011;66502;53.448;5.798;2022-12-31T18:23:27;11.77;;;2.35;;
34964;SDS011;66502;53.448;5.798;2022-12-31T18:25:58;13.95;;;7.05;;
34964;SDS011;66502;53.448;5.798;2022-12-31T18:28:24;11.68;;;3.65;;
34964;SDS011;66502;53.448;5.798;2022-12-31T18:30:51;5.63;;;2.08;;
34964;SDS011;66502;53.448;5.798;2022-12-31T18:33:18;12.77;;;5.57;;
34964;SDS011;66502;53.448;5.798;2022-12-31T18:35:48;10.45;;;3.00;;
34964;SDS011;66502;53.448;5.798;2022-12-31T18:38:34;7.28;;;3.13;;
34964;SDS011;66502;53.448;5.798;2022-12-31T18:41:00;11.35;;;2.95;;
34964;SDS011;66502;53.448;5.798;2022-12-31T18:43:27;5.07;;;2.20;;
34964;SDS011;66502;53.448;5.798;2022-12-31T18:45:54;5.88;;;2.53;;
34964;SDS011;66502;53.448;5.798;2022-12-31T18:48:20;5.72;;;2.47;;
34964;SDS011;66502;53.448;5.798;2022-12-31T18:50:47;6.88;;;2.53;;
34964;SDS011;66502;53.448;5.798;2022-12-31T18:53:23;7.15;;;2.22;;
34964;SDS011;66502;53.448;5.798;2022-12-31T18:55:54;6.50;;;2.13;;
34964;SDS011;66502;53.448;5.798;2022-12-31T18:58:22;9.88;;;2.55;;
34964;SDS011;66502;53.448;5.798;2022-12-31T19:00:49;8.65;;;2.83;;
34964;SDS011;66502;53.448;5.798;2022-12-31T19:03:21;5.57;;;2.30;;
34964;SDS011;66502;53.448;5.798;2022-12-31T19:05:49;11.88;;;3.10;;
34964;SDS011;66502;53.448;5.798;2022-12-31T19:08:17;4.78;;;2.30;;
34964;SDS011;66502;53.448;5.798;2022-12-31T19:10:46;4.20;;;2.53;;
34964;SDS011;66502;53.448;5.798;2022-12-31T19:13:14;10.05;;;3.08;;
34964;SDS011;66502;53.448;5.798;2022-12-31T19:15:48;5.73;;;2.93;;
34964;SDS011;66502;53.448;5.798;2022-12-31T19:18:16;12.43;;;6.45;;
34964;SDS011;66502;53.448;5.798;2022-12-31T19:20:42;11.82;;;5.53;;
34964;SDS011;66502;53.448;5.798;2022-12-31T19:23:16;7.97;;;4.15;;
34964;SDS011;66502;53.448;5.798;2022-12-31T19:25:46;7.78;;;3.03;;
34964;SDS011;66502;53.448;5.798;2022-12-31T19:28:16;7.68;;;3.90;;
34964;SDS011;66502;53.448;5.798;2022-12-31T19:30:44;11.40;;;5.68;;